Latest Weather Observations for Port Lincoln Airport

IDS60801

Issued at 9:31 pm CST Wednesday 27 May 2015 (issued every 30 minutes, with the page automatically refreshed every 10 minutes)

About weather observations | Map of weather stations | Latest weather observations for SA | Other Formats
Station Details ID: 018192 Name: PORT LINCOLN AWS Lat: -34.60 Lon: 135.88 Height: 8.5 m
Data from the previous 72 hours. | See also: Recent months at Port Lincoln Airport
Date/Time
CST
Temp
°C
App
Temp
°C
Dew
Point
Rel
Hum
%
Delta-T
°C
Wind Press
QNH
hPa
Press
MSL
hPa
Rain
since 9 am
mm
Dir
 
Spd
km/h
Gust
km/h
Spd
kts
Gust
kts
27/09:30pm 15.2 13.0 14.4 95 0.5 NW 19 26 10 14 1018.6 1018.6 0.0
27/09:00pm 15.0 13.4 14.0 94 0.6 NW 15 20 8 11 1018.5 1018.5 0.0
27/08:30pm 15.1 13.2 14.1 94 0.6 NW 17 20 9 11 1018.6 1018.6 0.0
27/08:00pm 14.7 13.9 13.9 95 0.4 NW 11 17 6 9 1018.6 1018.6 0.0
27/07:30pm 15.1 13.9 14.0 93 0.6 NW 13 20 7 11 1018.4 1018.4 0.0
27/07:00pm 14.9 14.8 13.8 93 0.6 NNW 7 11 4 6 1018.3 1018.3 0.0
27/06:30pm 15.6 14.4 14.1 91 0.8 NNW 13 15 7 8 1018.2 1018.2 0.0
27/06:00pm 15.8 15.4 14.2 90 0.9 NW 9 13 5 7 1018.1 1018.1 0.0
27/05:30pm 16.4 15.7 14.2 87 1.2 NNW 11 15 6 8 1017.6 1017.6 0.0
27/05:00pm 16.7 14.4 14.2 85 1.4 WNW 19 22 10 12 1018.0 1018.0 0.0
27/04:30pm 17.0 14.5 14.1 83 1.6 WNW 20 30 11 16 1017.9 1017.9 0.0
27/04:00pm 16.8 14.9 14.3 85 1.4 NW 17 24 9 13 1017.9 1017.9 0.0
27/03:30pm 17.4 14.4 14.7 84 1.6 WNW 24 30 13 16 1018.0 1018.0 0.0
27/03:00pm 18.1 15.6 14.0 77 2.3 WNW 20 26 11 14 1017.9 1017.9 0.0
27/02:30pm 18.5 14.7 14.6 78 2.3 WNW 28 37 15 20 1018.0 1018.0 0.0
27/02:00pm 18.5 14.5 14.2 76 2.5 WNW 28 33 15 18 1018.1 1018.1 0.0
27/01:30pm 18.6 14.8 14.7 78 2.3 WNW 28 35 15 19 1018.0 1018.0 0.0
27/01:00pm 19.0 15.3 15.1 78 2.3 NW 28 35 15 19 1018.4 1018.4 0.0
27/12:30pm 18.3 14.2 15.0 81 1.9 NW 30 35 16 19 1018.9 1018.9 0.0
27/12:00pm 17.7 13.9 14.6 82 1.8 NW 28 37 15 20 1019.3 1019.3 0.0
27/11:30am 17.0 11.7 14.3 84 1.5 NW 35 43 19 23 1019.6 1019.6 0.0
27/11:00am 16.4 11.8 14.6 89 1.0 NW 32 43 17 23 1020.0 1020.0 0.0
27/10:30am 15.3 9.9 14.0 92 0.7 NW 35 44 19 24 1020.2 1020.2 0.0
27/10:00am 15.1 10.2 13.8 92 0.7 NW 32 41 17 22 1020.1 1020.1 0.0
27/09:30am 14.9 10.4 13.8 93 0.6 NW 30 37 16 20 1020.0 1020.0 0.0
27/09:00am 14.9 11.1 13.6 92 0.7 NW 26 32 14 17 1019.8 1019.8 1.0
27/08:30am 14.3 11.5 13.2 93 0.6 NW 20 26 11 14 1019.9 1019.9 1.0
27/08:00am 13.5 10.2 12.7 95 0.4 NW 22 28 12 15 1019.9 1019.9 1.0
27/07:30am 13.3 10.0 12.7 96 0.3 NW 22 28 12 15 1019.8 1019.8 1.0
27/07:00am 12.9 9.8 12.1 95 0.4 NW 20 26 11 14 1019.4 1019.4 0.8
27/06:30am 13.4 9.3 12.6 95 0.4 NW 26 35 14 19 1019.3 1019.3 0.8
27/06:00am 13.4 9.0 12.8 96 0.3 NW 28 35 15 19 1019.1 1019.1 0.8
27/05:40am 13.3 8.8 12.7 96 0.3 NW 28 35 15 19 1019.0 1019.0 0.8
27/05:30am 13.3 9.2 12.8 97 0.3 NW 26 33 14 18 1019.0 1019.0 0.8
27/05:00am 13.5 9.5 13.0 97 0.3 NW 26 35 14 19 1019.0 1019.0 0.8
27/04:58am 13.4 9.8 12.9 97 0.3 NW 24 35 13 19 1019.1 1019.1 0.8
27/04:30am 12.8 10.3 12.3 97 0.3 NW 17 22 9 12 1018.8 1018.8 0.8
27/04:00am 12.6 9.1 12.1 97 0.3 NW 22 30 12 16 1019.0 1019.0 0.8
27/03:30am 13.0 9.1 12.2 95 0.4 NW 24 30 13 16 1019.1 1019.1 0.8
27/03:00am 13.3 9.5 12.5 95 0.4 NW 24 33 13 18 1019.4 1019.4 0.8
27/02:30am 12.9 9.4 12.1 95 0.4 NW 22 28 12 15 1019.5 1019.5 0.8
27/02:00am 12.7 9.7 11.8 94 0.5 NW 19 22 10 12 1019.9 1019.9 0.8
27/01:30am 12.7 10.0 11.8 94 0.5 NW 17 22 9 12 1020.0 1020.0 0.8
27/01:00am 12.9 9.8 11.5 91 0.7 NW 19 24 10 13 1020.2 1020.2 0.8
27/12:30am 13.2 9.8 11.3 88 1.0 NW 20 28 11 15 1020.3 1020.3 0.8
27/12:00am 12.9 9.4 10.8 87 1.1 NNW 20 28 11 15 1020.5 1020.5 0.8
 
Date/Time
CST
Temp
°C
App
Temp
°C
Dew
Point
Rel
Hum
%
Delta-T
°C
Wind Press
QNH
hPa
Press
MSL
hPa
Rain
since 9 am
mm
Dir
 
Spd
km/h
Gust
km/h
Spd
kts
Gust
kts
26/11:30pm 12.7 9.4 10.8 88 1.0 WNW 19 24 10 13 1020.7 1020.7 0.8
26/11:00pm 12.8 9.1 10.3 85 1.3 WNW 20 28 11 15 1020.7 1020.7 0.8
26/10:30pm 12.9 9.8 10.3 84 1.3 NW 17 24 9 13 - - 0.8
26/10:00pm 12.3 9.1 9.9 85 1.2 NNW 17 20 9 11 1020.5 1020.5 0.8
26/09:30pm 12.9 9.7 9.9 82 1.5 NNW 17 22 9 12 1020.5 1020.5 0.8
26/09:00pm 12.6 9.4 9.8 83 1.4 NNW 17 20 9 11 1020.4 1020.4 0.8
26/08:30pm 12.2 9.8 10.1 87 1.1 WNW 13 17 7 9 1020.7 1020.7 0.8
26/08:00pm 13.7 10.3 10.7 82 1.6 NNW 19 22 10 12 1020.7 1020.7 0.8
26/07:30pm 13.2 10.8 11.3 88 1.0 N 15 19 8 10 1020.6 1020.6 0.8
26/07:00pm 13.8 14.0 12.0 89 1.0 N 2 6 1 3 1021.0 1021.0 0.8
26/06:30pm 13.7 12.9 11.7 88 1.1 N 7 11 4 6 1020.8 1020.8 0.8
26/06:00pm 13.5 11.9 11.7 89 1.0 NNE 11 15 6 8 1020.9 1020.9 0.8
26/05:30pm 13.9 12.9 12.3 90 0.9 N 9 13 5 7 1021.0 1021.0 0.8
26/05:00pm 14.1 11.6 12.3 89 1.0 WNW 17 24 9 13 1021.3 1021.3 0.6
26/04:30pm 14.6 9.4 11.7 83 1.6 NW 30 39 16 21 1021.4 1021.4 0.4
26/04:23pm 15.1 10.2 11.3 78 2.0 WNW 28 37 15 20 1021.3 1021.3 0.2
26/04:00pm 17.5 14.7 9.9 61 4.0 W 15 19 8 10 1020.9 1020.9 0.0
26/03:30pm 16.9 15.7 12.8 77 2.3 E 11 15 6 8 1020.5 1020.5 0.0
26/03:00pm 17.7 16.0 12.4 71 2.9 ENE 13 20 7 11 1020.3 1020.3 0.0
26/02:30pm 18.5 16.9 12.9 70 3.1 ENE 13 17 7 9 1020.3 1020.3 0.0
26/02:00pm 20.2 18.5 12.4 61 4.4 E 13 20 7 11 1020.4 1020.4 0.0
26/01:30pm 20.3 18.6 11.2 56 5.0 NNE 11 20 6 11 1020.8 1020.8 0.0
26/01:00pm 20.9 18.7 10.7 52 5.6 NW 13 28 7 15 1021.4 1021.4 0.0
26/12:30pm 20.1 16.7 9.1 49 5.8 N 17 22 9 12 1021.9 1021.9 0.0
26/12:00pm 20.5 18.2 10.3 52 5.5 N 13 20 7 11 1022.2 1022.2 0.0
26/11:30am 19.9 17.4 9.8 52 5.4 NNW 13 20 7 11 1022.9 1022.9 0.0
26/11:00am 19.4 16.1 9.6 53 5.2 NW 17 20 9 11 1023.4 1023.4 0.0
26/10:30am 18.9 18.0 11.2 61 4.2 N 7 11 4 6 1023.6 1023.6 0.0
26/10:00am 17.8 18.1 10.9 64 3.7 CALM 0 0 0 0 1024.0 1024.0 0.0
26/09:30am 15.8 14.9 10.8 72 2.6 NNE 6 9 3 5 1024.2 1024.2 0.0
26/09:00am 15.1 15.3 10.5 74 2.4 CALM 0 0 0 0 1024.5 1024.5 0.0
26/08:30am 12.5 12.8 10.9 90 0.8 CALM 0 0 0 0 1024.4 1024.4 0.0
26/08:00am 11.5 10.6 10.6 94 0.5 NW 6 7 3 4 1024.5 1024.5 0.0
26/07:30am 11.3 11.4 10.2 93 0.6 CALM 0 0 0 0 1024.4 1024.4 0.0
26/07:00am 11.6 11.0 10.5 93 0.6 WNW 4 6 2 3 1024.3 1024.3 0.0
26/06:30am 11.5 10.4 10.7 95 0.4 WNW 7 9 4 5 1024.3 1024.3 0.0
26/06:00am 11.5 10.6 10.6 94 0.5 NNW 6 9 3 5 1024.1 1024.1 0.0
26/05:30am 11.6 11.8 10.7 94 0.5 CALM 0 0 0 0 1024.3 1024.3 0.0
26/05:00am 11.4 11.5 10.3 93 0.6 CALM 0 0 0 0 1024.3 1024.3 0.0
26/04:30am 11.7 12.0 10.8 94 0.5 CALM 0 0 0 0 1024.3 1024.3 0.0
26/04:00am 11.9 12.1 10.6 92 0.7 CALM 0 0 0 0 1024.5 1024.5 0.0
26/03:30am 11.5 11.6 10.1 91 0.7 CALM 0 0 0 0 1024.7 1024.7 0.0
26/03:00am 11.9 12.0 10.3 90 0.8 CALM 0 0 0 0 1024.7 1024.7 0.0
26/02:30am 12.2 12.4 10.6 90 0.8 CALM 0 0 0 0 1025.0 1025.0 0.0
26/02:00am 12.3 12.5 10.4 88 1.0 CALM 0 0 0 0 1025.3 1025.3 0.0
26/01:30am 11.9 10.9 10.3 90 0.8 NNW 6 6 3 3 1025.5 1025.5 0.0
26/01:00am 12.0 11.1 10.6 91 0.7 NW 6 7 3 4 1025.7 1025.7 0.0
26/12:30am 12.1 10.6 10.7 91 0.7 WNW 9 9 5 5 1025.9 1025.9 0.0
26/12:00am 12.1 12.4 10.8 92 0.7 CALM 0 0 0 0 1026.0 1026.0 0.0
 
Date/Time
CST
Temp
°C
App
Temp
°C
Dew
Point
Rel
Hum
%
Delta-T
°C
Wind Press
QNH
hPa
Press
MSL
hPa
Rain
since 9 am
mm
Dir
 
Spd
km/h
Gust
km/h
Spd
kts
Gust
kts
25/11:30pm 12.2 12.5 10.8 91 0.7 CALM 0 0 0 0 1026.2 1026.2 0.0
25/11:00pm 12.3 12.6 10.9 91 0.7 CALM 0 6 0 3 1026.3 1026.3 0.0
25/10:30pm 12.3 11.5 10.9 91 0.7 NNW 6 7 3 4 1026.3 1026.3 0.0
25/10:00pm 12.0 10.7 11.4 96 0.3 NNW 9 11 5 6 1026.4 1026.4 0.0
25/09:30pm 11.9 10.3 11.4 97 0.3 WNW 11 11 6 6 1026.6 1026.6 0.0
25/09:00pm 12.0 12.4 11.2 95 0.4 CALM 0 0 0 0 1026.6 1026.6 0.0
25/08:30pm 12.1 12.5 11.2 94 0.5 CALM 0 0 0 0 1026.6 1026.6 0.0
25/08:00pm 12.6 13.1 11.7 94 0.5 CALM 0 0 0 0 1026.8 1026.8 0.0
25/07:30pm 12.6 13.1 11.5 93 0.6 CALM 0 0 0 0 1026.6 1026.6 0.0
25/07:00pm 13.6 14.4 12.7 94 0.5 CALM 0 0 0 0 1026.4 1026.4 0.0
25/06:30pm 13.9 14.7 12.6 92 0.7 CALM 0 0 0 0 1026.4 1026.4 0.0
25/06:00pm 14.2 13.7 12.6 90 0.9 ENE 7 9 4 5 1026.0 1026.0 0.0
25/05:30pm 14.3 13.8 12.7 90 0.9 ENE 7 9 4 5 1026.1 1026.1 0.0
25/05:00pm 14.9 14.1 12.8 87 1.2 ENE 9 9 5 5 1025.7 1025.7 0.0
25/04:30pm 15.6 14.9 13.1 85 1.4 ENE 9 11 5 6 1025.7 1025.7 0.0
25/04:00pm 15.8 14.9 12.7 82 1.7 ENE 9 11 5 6 1025.8 1025.8 0.0
25/03:30pm 16.0 15.5 12.6 80 1.9 E 7 9 4 5 1025.5 1025.5 0.0
25/03:00pm 16.3 15.2 11.9 75 2.4 ENE 9 13 5 7 1025.2 1025.2 0.0
25/02:30pm 16.4 14.9 12.0 75 2.4 E 11 13 6 7 1025.0 1025.0 0.0
25/02:00pm 16.8 14.5 10.6 67 3.3 ENE 13 17 7 9 1025.1 1025.1 0.0
25/01:30pm 17.2 15.8 12.3 73 2.7 ENE 11 13 6 7 1025.4 1025.4 0.0
25/01:00pm 17.8 16.0 10.9 64 3.7 ENE 11 13 6 7 1025.6 1025.6 0.0
25/12:30pm 17.6 16.2 10.9 65 3.6 ENE 9 13 5 7 1026.2 1026.2 0.0
25/12:00pm 17.2 15.8 12.1 72 2.8 ENE 11 15 6 8 1026.7 1026.7 0.0
25/11:30am 17.1 15.2 10.5 65 3.5 E 11 15 6 8 1027.0 1027.0 0.0
25/11:00am 16.1 13.2 9.8 66 3.3 ENE 15 19 8 10 1027.5 1027.5 0.0
25/10:30am 16.4 14.6 9.3 63 3.7 ENE 9 13 5 7 1027.6 1027.6 0.0
25/10:00am 15.7 13.8 8.9 64 3.5 NE 9 13 5 7 1027.9 1027.9 0.0
25/09:30am 13.9 13.0 9.3 74 2.3 NNE 4 9 2 5 1028.2 1028.2 0.0
25/09:00am 13.0 12.6 9.8 81 1.6 NNW 2 6 1 3 1028.3 1028.3 0.0
25/08:30am 11.4 9.9 9.0 85 1.2 NW 7 9 4 5 1028.1 1028.1 0.0
25/08:00am 8.7 6.9 7.3 91 0.7 WNW 6 7 3 4 1028.0 1028.0 0.0
25/07:30am 7.9 5.8 6.7 92 0.5 WNW 7 9 4 5 1027.8 1027.8 0.0
25/07:00am 8.1 7.3 6.7 91 0.6 CALM 0 0 0 0 1027.6 1027.6 0.0
25/06:30am 9.2 8.7 7.8 91 0.7 CALM 0 0 0 0 1027.4 1027.4 0.0
25/06:00am 9.9 9.6 8.7 92 0.6 CALM 0 0 0 0 1027.2 1027.2 0.0
25/05:30am 9.8 9.6 8.9 94 0.4 CALM 0 6 0 3 1027.1 1027.1 0.0
25/05:00am 9.0 8.6 8.1 94 0.4 CALM 0 0 0 0 1027.1 1027.1 0.0
25/04:30am 10.0 9.8 9.1 94 0.4 CALM 0 0 0 0 1026.9 1026.9 0.0
25/04:00am 10.2 8.9 9.3 94 0.4 NNW 6 7 3 4 1026.9 1026.9 0.0
25/03:30am 10.4 9.1 9.8 96 0.3 NW 7 11 4 6 1027.0 1027.0 0.0
25/03:00am 10.5 9.4 9.9 96 0.3 NW 6 9 3 5 1027.1 1027.1 0.0
25/02:30am 10.1 8.7 9.5 96 0.3 WNW 7 9 4 5 1027.3 1027.3 0.0
25/02:00am 9.3 7.9 8.7 96 0.3 WNW 6 7 3 4 1027.4 1027.4 0.0
25/01:30am 8.5 6.2 7.6 94 0.4 WNW 9 11 5 6 1027.4 1027.4 0.0
25/01:00am 8.1 6.0 6.7 91 0.6 WNW 7 9 4 5 1027.6 1027.6 0.0
25/12:30am 9.1 6.9 7.9 92 0.6 NNW 9 11 5 6 1027.7 1027.7 0.0
25/12:00am 10.0 8.4 8.8 92 0.6 NW 7 11 4 6 1027.7 1027.7 0.0
 
Date/Time
CST
Temp
°C
App
Temp
°C
Dew
Point
Rel
Hum
%
Delta-T
°C
Wind Press
QNH
hPa
Press
MSL
hPa
Rain
since 9 am
mm
Dir
 
Spd
km/h
Gust
km/h
Spd
kts
Gust
kts
24/11:30pm 11.0 9.7 9.3 89 0.8 WNW 6 7 3 4 1027.8 1027.8 0.0
24/11:00pm 11.3 9.9 9.6 89 0.9 WNW 7 9 4 5 1027.8 1027.8 0.0
24/10:30pm 11.8 10.6 9.5 86 1.2 NW 6 9 3 5 1028.0 1028.0 0.0
24/10:00pm 11.8 10.4 9.5 86 1.2 NW 7 9 4 5 1027.9 1027.9 0.0

Other Formats:

Comma delimited format used in spreadsheet applications
http://www.bom.gov.au/fwo/IDS60801/IDS60801.95661.axf

JavaScript Object Notation format (JSON) in row-major order
http://www.bom.gov.au/fwo/IDS60801/IDS60801.95661.json